Saturday, November 18, 2017, 1:19 AM EST
Back to Local

KVAY, Mt Holly South Jersey Rgnl

Location: Medford, NJ, United States Lat: 39.933
Local Time: 1:19 AM EST ( 6:19 GMT) Lon: -74.833
Time Zone: US/Eastern Elev: 52 ft

Show me the last for .
Show Decoded

2017-11-18 00:54 METAR KVAY 180554Z AUTO 00000KT 10SM M02/M04 A3006 RMK AO2 SLP180 T10171039
                 10033 21022 58017 $ =
2017-11-17 23:54 METAR KVAY 180454Z AUTO 00000KT 10SM CLR M02/M04 A3008 RMK AO2 SLP187 T10221039
                 400941022 $ =
2017-11-17 22:54 METAR KVAY 180354Z AUTO 00000KT 10SM CLR M02/M03 A3010 RMK AO2 SLP193 T10171033
                 $ =
2017-11-17 21:54 METAR KVAY 180254Z AUTO 00000KT 10SM CLR M01/M03 A3011 RMK AO2 SLP197 T10111033
                 56003 $ =
2017-11-17 20:54 METAR KVAY 180154Z AUTO 15003KT 10SM CLR 01/M03 A3012 RMK AO2 SLP199 T00061033 $
                 =
2017-11-17 19:54 METAR KVAY 180054Z AUTO 00000KT 10SM CLR 02/M04 A3011 RMK AO2 SLP195 T00171039 $
                 =
2017-11-17 18:54 METAR KVAY 172354Z AUTO 26003KT 10SM CLR 02/M04 A3012 RMK AO2 SLP199 T00171039
                 10094 20017 51008 $ =
2017-11-17 17:54 METAR KVAY 172254Z AUTO 00000KT 10SM CLR 03/M04 A3012 RMK AO2 SLP198 T00331039 $
                 =
2017-11-17 16:54 METAR KVAY 172154Z AUTO 31003KT 10SM CLR 08/M06 A3011 RMK AO2 SLP195 T00781056 $
                 =
2017-11-17 15:54 METAR KVAY 172054Z AUTO 31007KT 10SM CLR 09/M06 A3010 RMK AO2 SLP191 T00891056
                 56007 =
2017-11-17 14:54 METAR KVAY 171954Z AUTO 29007KT 10SM CLR 09/M05 A3010 RMK AO2 SLP192 T00941050 =
2017-11-17 13:54 METAR KVAY 171854Z AUTO 32007G16KT CLR 09/M04 A3010 RMK AO2 SLP191 T00941039 $ =
2017-11-17 12:54 METAR KVAY 171754Z AUTO 27010G18KT 10SM CLR 08/M04 A3012 RMK AO2 SLP197
                 T00831039 10089 20039 56010 $ =
2017-11-17 11:54 METAR KVAY 171654Z AUTO 29010G19KT 10SM CLR 08/M04 A3012 RMK AO2 SLP200
                 T00831039 $ =
2017-11-17 10:54 METAR KVAY 171554Z AUTO 30011G18KT 10SM CLR 07/M04 A3012 RMK AO2 SLP200
                 T00721039 =
2017-11-17 09:54 METAR KVAY 171454Z AUTO 29014G24KT 10SM CLR 07/M04 A3015 RMK AO2 SLP207
                 T00671039 51017 =
2017-11-17 08:54 METAR KVAY 171354Z AUTO 32011G20KT 10SM CLR 06/M03 A3013 RMK AO2 SLP203
                 T00611033 =
2017-11-17 07:54 METAR KVAY 171254Z AUTO 30009G16KT 10SM CLR 05/M03 A3013 RMK AO2 SLP201
                 T00501028 =
2017-11-17 06:54 METAR KVAY 171154Z AUTO 33006KT 10SM CLR 04/M03 A3009 RMK AO2 SLP190 T00441028
                 10072 20044 53021 $ =
2017-11-17 05:54 METAR KVAY 171054Z AUTO 30006KT 10SM FEW043 06/M02 A3006 RMK AO2 SLP179
                 T00561017 $ =
2017-11-17 04:54 METAR KVAY 170954Z AUTO 30009G18KT 10SM BKN047 06/M02 A3005 RMK AO2 SLP174
                 T00611022 $ =
2017-11-17 03:54 METAR KVAY 170854Z AUTO 30006KT 10SM OVC048 07/M02 A3003 RMK AO2 SLP169
                 T00671017 53014 $ =
2017-11-17 02:54 METAR KVAY 170754Z AUTO 29008KT 10SM OVC048 07/M01 A3001 RMK AO2 SLP162
                 T00671006 $ =
2017-11-17 01:54 METAR KVAY 170654Z AUTO 28006KT 10SM FEW060 06/M01 A3000 RMK AO2 SLP157
                 T00561006 $ =

Support USWX by starting your Amazon purchase here.